Time;durP1;ratioP1;P1;durP2;ratioP2;P2;SDS_P1;SDS_P2;PMS_P1;PMS_P2;Temp;Humidity;BMP_temperature;BMP_pressure;BME280_temperature;BME280_humidity;BME280_pressure;Samples;Min_cycle;Max_cycle;Signal;HPM_P1;HPM_P2
2022/11/18 00:01:24;;;;;;;1.83;1.20;;;11.30;73.40;;;;;;5087087;28;20565;-63
2022/11/18 00:03:51;;;;;;;1.55;1.20;;;11.30;73.40;;;;;;5085951;28;20036;-62
2022/11/18 00:06:22;;;;;;;1.25;1.02;;;11.30;73.40;;;;;;5075389;28;20025;-62
2022/11/18 00:08:48;;;;;;;1.63;1.20;;;11.30;73.40;;;;;;5080225;28;20024;-64
2022/11/18 00:14:17;;;;;;;1.88;1.30;;;11.30;73.40;;;;;;5083445;28;20043;-62
2022/11/18 00:14:19;;;;;;;1.55;1.20;;;11.20;73.40;;;;;;5084958;28;20040;-63
2022/11/18 00:16:57;;;;;;;2.05;1.23;;;11.20;73.40;;;;;;5084248;28;20490;-62
2022/11/18 00:19:37;;;;;;;1.75;1.10;;;11.20;73.40;;;;;;5078110;28;20051;-64
2022/11/18 00:22:04;;;;;;;1.55;1.40;;;11.20;73.50;;;;;;5092141;28;20028;-64
2022/11/18 00:24:30;;;;;;;1.50;1.40;;;11.20;73.40;;;;;;5083762;28;20032;-63
2022/11/18 00:26:56;;;;;;;2.42;1.70;;;11.10;73.40;;;;;;5089879;28;20028;-62
2022/11/18 00:29:23;;;;;;;2.70;2.30;;;11.10;73.60;;;;;;5090344;28;20016;-62
2022/11/18 00:31:48;;;;;;;4.65;2.60;;;11.10;73.70;;;;;;5075060;28;20685;-62
2022/11/18 00:34:16;;;;;;;5.35;2.70;;;11.10;73.80;;;;;;5088394;28;20032;-63
2022/11/18 00:36:43;;;;;;;3.47;2.35;;;11.00;73.90;;;;;;5072767;28;20055;-63
2022/11/18 00:39:13;;;;;;;2.80;2.25;;;11.00;73.90;;;;;;5078189;28;20688;-61
2022/11/18 00:44:23;;;;;;;5.28;1.88;;;11.00;74.50;;;;;;5103861;28;20035;-63
2022/11/18 00:46:49;;;;;;;2.92;1.88;;;11.00;73.80;;;;;;5088386;28;20036;-63
2022/11/18 00:49:15;;;;;;;3.95;2.35;;;11.00;73.80;;;;;;5082123;28;20058;-62
2022/11/18 00:51:41;;;;;;;2.25;1.75;;;10.90;73.70;;;;;;5084115;28;20037;-62
2022/11/18 00:54:06;;;;;;;2.22;1.58;;;10.90;73.80;;;;;;4974558;28;20016;-62
2022/11/18 00:56:32;;;;;;;1.80;1.70;;;10.90;73.90;;;;;;5087545;28;20481;-62
2022/11/18 00:58:58;;;;;;;2.90;1.50;;;10.90;73.90;;;;;;5079450;28;20136;-63
2022/11/18 01:01:24;;;;;;;1.98;1.63;;;10.90;73.90;;;;;;5088067;28;20056;-63
2022/11/18 01:03:49;;;;;;;2.28;1.60;;;10.90;74.00;;;;;;5085395;28;20083;-64
2022/11/18 01:06:15;;;;;;;2.15;1.67;;;10.90;74.00;;;;;;5086056;28;20032;-63
2022/11/18 01:08:41;;;;;;;1.38;1.27;;;10.90;74.00;;;;;;5081678;28;20028;-62
2022/11/18 01:13:53;;;;;;;2.83;1.48;;;10.90;74.10;;;;;;5081454;28;20040;-62
2022/11/18 01:16:21;;;;;;;1.73;1.30;;;10.90;74.10;;;;;;5070958;28;20020;-62
2022/11/18 01:18:47;;;;;;;1.52;1.00;;;10.90;74.20;;;;;;5089384;28;20020;-64
2022/11/18 01:21:13;;;;;;;2.15;1.10;;;10.90;74.20;;;;;;5082639;28;20031;-63
2022/11/18 01:23:39;;;;;;;3.60;1.05;;;10.90;74.30;;;;;;5083852;28;20020;-63
2022/11/18 01:26:07;;;;;;;3.10;1.40;;;10.90;74.30;;;;;;5082927;28;20388;-64
2022/11/18 01:28:33;;;;;;;1.65;1.10;;;10.90;74.30;;;;;;5079559;28;20920;-62
2022/11/18 01:31:12;;;;;;;1.63;1.25;;;10.90;74.30;;;;;;5086665;28;20062;-62
2022/11/18 01:33:38;;;;;;;1.45;1.33;;;10.90;74.50;;;;;;5085120;28;20029;-64
2022/11/18 01:36:04;;;;;;;2.65;1.33;;;10.90;74.20;;;;;;5078323;28;20021;-63
2022/11/18 01:38:30;;;;;;;1.75;1.48;;;10.90;74.30;;;;;;5089080;28;20149;-62
2022/11/18 01:40:56;;;;;;;2.97;1.58;;;10.90;74.40;;;;;;5079698;28;20029;-62
2022/11/18 01:43:22;;;;;;;1.88;1.50;;;10.90;74.40;;;;;;5090110;28;20494;-63
2022/11/18 01:45:50;;;;;;;1.58;1.48;;;10.90;74.50;;;;;;5084492;28;20039;-63
2022/11/18 01:48:25;;;;;;;2.42;1.30;;;10.90;74.50;;;;;;5075725;28;20067;-63
2022/11/18 01:51:00;;;;;;;1.45;1.35;;;10.90;74.70;;;;;;5073730;28;20039;-63
2022/11/18 01:53:32;;;;;;;3.78;1.33;;;10.90;74.80;;;;;;5076628;28;20090;-63
2022/11/18 01:56:01;;;;;;;1.60;1.50;;;10.90;74.70;;;;;;5076013;28;20024;-63
2022/11/18 01:58:41;;;;;;;2.88;1.40;;;10.90;74.60;;;;;;5089973;28;20082;-63
2022/11/18 02:01:07;;;;;;;2.17;1.90;;;10.90;74.80;;;;;;5082913;28;20101;-62
2022/11/18 02:03:36;;;;;;;1.92;1.50;;;10.90;74.50;;;;;;5080004;28;20029;-63
2022/11/18 02:06:03;;;;;;;1.50;1.20;;;10.90;74.50;;;;;;5081065;28;20097;-62
2022/11/18 02:08:30;;;;;;;1.75;1.50;;;10.90;74.50;;;;;;5099921;28;20019;-64
2022/11/18 02:10:56;;;;;;;2.45;1.40;;;10.90;74.50;;;;;;5088681;28;20035;-62
2022/11/18 02:13:22;;;;;;;2.60;1.08;;;10.90;74.50;;;;;;5093734;28;20024;-64
2022/11/18 02:16:14;;;;;;;2.50;1.10;;;10.90;74.50;;;;;;5086656;28;20024;-62
2022/11/18 02:18:55;;;;;;;1.52;0.95;;;10.90;74.90;;;;;;5085450;28;20058;-62
2022/11/18 02:21:51;;;;;;;1.98;1.40;;;10.90;74.80;;;;;;5087577;28;20040;-63
2022/11/18 02:24:54;;;;;;;2.35;1.13;;;10.90;75.00;;;;;;5089191;28;20433;-64
2022/11/18 02:27:28;;;;;;;2.22;0.98;;;10.90;75.00;;;;;;5090438;28;20031;-63
2022/11/18 02:30:12;;;;;;;4.43;1.27;;;10.90;74.70;;;;;;5082051;28;20055;-63
2022/11/18 02:32:47;;;;;;;2.53;1.05;;;10.90;74.90;;;;;;5072648;28;20064;-63
2022/11/18 02:35:27;;;;;;;1.92;1.20;;;10.90;74.70;;;;;;5076815;28;20566;-62
2022/11/18 02:38:04;;;;;;;1.05;0.95;;;10.90;74.90;;;;;;5084892;28;20067;-63
2022/11/18 02:40:42;;;;;;;1.20;1.10;;;11.00;75.00;;;;;;5088304;28;20029;-63
2022/11/18 02:43:47;;;;;;;1.52;1.40;;;10.90;74.90;;;;;;5079457;28;20028;-63
2022/11/18 02:46:17;;;;;;;1.40;1.30;;;10.90;75.40;;;;;;5049749;28;20187;-62
2022/11/18 02:48:48;;;;;;;1.40;1.13;;;10.90;74.70;;;;;;5051220;28;20033;-62
2022/11/18 02:51:17;;;;;;;1.23;1.13;;;10.90;74.70;;;;;;5052348;28;20037;-63
2022/11/18 02:53:45;;;;;;;1.90;1.20;;;10.90;74.70;;;;;;5039284;28;20025;-64
2022/11/18 02:56:12;;;;;;;1.58;1.17;;;11.00;74.80;;;;;;5055357;28;20033;-63
2022/11/18 02:58:38;;;;;;;1.20;1.10;;;10.90;74.80;;;;;;5050721;28;20021;-62
2022/11/18 03:01:04;;;;;;;1.80;1.10;;;11.00;74.90;;;;;;5038982;28;20033;-64
2022/11/18 03:03:34;;;;;;;1.55;1.25;;;10.90;74.80;;;;;;5055202;28;20043;-62
2022/11/18 03:06:19;;;;;;;1.95;1.40;;;11.00;75.00;;;;;;5034187;28;20040;-62
2022/11/18 03:08:53;;;;;;;3.22;1.40;;;11.00;74.80;;;;;;5041973;28;20137;-63
2022/11/18 03:11:22;;;;;;;2.03;1.40;;;11.00;75.00;;;;;;5048592;28;20629;-63
2022/11/18 03:14:13;;;;;;;2.00;1.42;;;11.00;75.00;;;;;;5038885;28;20034;-64
2022/11/18 03:16:47;;;;;;;1.65;1.45;;;11.00;75.50;;;;;;5048204;28;20068;-63
2022/11/18 03:19:35;;;;;;;3.97;1.52;;;11.00;75.10;;;;;;5044229;28;20079;-64
2022/11/18 03:22:23;;;;;;;2.03;1.45;;;11.00;75.30;;;;;;5093294;28;20031;-63
2022/11/18 03:25:15;;;;;;;2.80;1.75;;;11.00;75.40;;;;;;5092648;28;20039;-62
2022/11/18 03:28:06;;;;;;;1.50;1.40;;;11.00;75.00;;;;;;5075139;28;20063;-62
2022/11/18 03:30:35;;;;;;;2.58;1.40;;;11.00;74.90;;;;;;5074219;28;20044;-63
2022/11/18 03:33:10;;;;;;;3.03;1.70;;;11.00;74.70;;;;;;5090452;28;20025;-63
2022/11/18 03:35:40;;;;;;;2.65;1.70;;;11.00;75.00;;;;;;5080174;28;20028;-64
2022/11/18 03:38:25;;;;;;;2.00;1.80;;;11.00;75.00;;;;;;5089099;28;20020;-64
2022/11/18 03:40:56;;;;;;;2.58;1.85;;;11.00;75.40;;;;;;5075755;28;20412;-63
2022/11/18 03:43:26;;;;;;;4.43;1.83;;;10.90;74.90;;;;;;5089753;28;20013;-64
2022/11/18 03:46:06;;;;;;;1.83;1.73;;;10.90;74.90;;;;;;5081769;28;20403;-64
2022/11/18 03:48:40;;;;;;;2.50;1.85;;;10.90;75.10;;;;;;5093173;28;20108;-64
2022/11/18 03:51:10;;;;;;;3.22;1.90;;;10.90;75.10;;;;;;5090990;28;20050;-63
2022/11/18 03:53:41;;;;;;;1.95;1.50;;;10.90;75.10;;;;;;5080474;28;20024;-64
2022/11/18 03:56:15;;;;;;;1.77;1.50;;;10.90;75.10;;;;;;5077412;28;20107;-64
2022/11/18 03:58:46;;;;;;;1.65;1.40;;;10.90;75.20;;;;;;5087926;28;20024;-64
2022/11/18 04:01:18;;;;;;;1.70;1.60;;;10.90;75.10;;;;;;5074779;28;20044;-64
2022/11/18 04:03:44;;;;;;;2.35;1.30;;;10.90;75.10;;;;;;5078218;28;20477;-63
2022/11/18 04:06:25;;;;;;;3.88;1.73;;;10.90;75.00;;;;;;5084328;28;20027;-63
2022/11/18 04:08:55;;;;;;;2.55;1.55;;;10.90;75.40;;;;;;5084750;28;20021;-63
2022/11/18 04:14:19;;;;;;;2.28;1.40;;;10.90;75.20;;;;;;5070365;28;20100;-62
2022/11/18 04:16:50;;;;;;;1.65;1.48;;;10.90;75.00;;;;;;5088175;28;20263;-64
2022/11/18 04:19:16;;;;;;;4.97;1.30;;;10.90;75.20;;;;;;5074751;28;20082;-63
2022/11/18 04:21:42;;;;;;;1.42;1.33;;;10.90;75.10;;;;;;5082301;28;20028;-64
2022/11/18 04:24:07;;;;;;;2.00;1.10;;;10.90;75.00;;;;;;5085845;28;20028;-64
2022/11/18 04:26:33;;;;;;;1.45;1.27;;;10.90;74.80;;;;;;5085400;28;20016;-64
2022/11/18 04:28:59;;;;;;;1.23;1.13;;;10.90;74.70;;;;;;5078276;28;20035;-64
2022/11/18 04:31:25;;;;;;;1.08;1.00;;;10.90;74.70;;;;;;5073520;28;20051;-63
2022/11/18 04:33:51;;;;;;;0.95;0.90;;;10.90;74.70;;;;;;5082827;28;20024;-63
2022/11/18 04:36:16;;;;;;;1.42;1.00;;;10.90;74.40;;;;;;5077985;28;20031;-63
2022/11/18 04:38:43;;;;;;;1.00;0.90;;;10.90;74.30;;;;;;5074771;28;20021;-63
2022/11/18 04:41:09;;;;;;;1.27;1.10;;;10.90;74.30;;;;;;5086234;28;20028;-64
2022/11/18 04:43:34;;;;;;;1.70;0.90;;;10.80;74.20;;;;;;5091936;28;20031;-64
2022/11/18 04:46:00;;;;;;;1.00;1.00;;;10.80;74.00;;;;;;5074133;28;20029;-63
2022/11/18 04:48:25;;;;;;;0.80;0.80;;;10.80;74.20;;;;;;5083782;28;20095;-62
2022/11/18 04:50:51;;;;;;;0.85;0.70;;;10.70;74.00;;;;;;5080432;28;20086;-64
2022/11/18 04:53:17;;;;;;;3.50;0.90;;;10.70;74.00;;;;;;5079788;28;20028;-65
2022/11/18 04:55:42;;;;;;;0.80;0.80;;;10.70;74.00;;;;;;5087840;28;20392;-63
2022/11/18 04:58:08;;;;;;;1.13;0.70;;;10.60;74.00;;;;;;5090161;28;20479;-64
2022/11/18 05:00:34;;;;;;;0.70;0.70;;;10.60;74.00;;;;;;5088326;28;20467;-63
2022/11/18 05:02:59;;;;;;;1.73;0.73;;;10.50;74.10;;;;;;5095831;28;20398;-64
2022/11/18 05:05:25;;;;;;;0.70;0.70;;;10.50;74.30;;;;;;5091097;28;20058;-63
2022/11/18 05:07:51;;;;;;;3.13;0.70;;;10.50;74.20;;;;;;5083087;28;20056;-63
2022/11/18 05:10:16;;;;;;;0.98;0.73;;;10.50;74.10;;;;;;5080270;28;20043;-64
2022/11/18 05:12:48;;;;;;;0.90;0.82;;;10.50;73.90;;;;;;5083652;28;20027;-63
2022/11/18 05:15:15;;;;;;;1.20;0.80;;;10.50;74.10;;;;;;5082818;28;20047;-63
2022/11/18 05:17:41;;;;;;;0.73;0.70;;;10.40;74.20;;;;;;5078702;28;20469;-63
2022/11/18 05:20:07;;;;;;;0.70;0.70;;;10.40;74.20;;;;;;5084867;28;20017;-64
2022/11/18 05:22:33;;;;;;;2.10;0.60;;;10.40;74.20;;;;;;5080827;28;20024;-63
2022/11/18 05:24:58;;;;;;;0.70;0.70;;;10.40;73.90;;;;;;5086007;28;20024;-65
2022/11/18 05:27:24;;;;;;;1.88;0.90;;;10.30;73.80;;;;;;5090777;28;20020;-65
2022/11/18 05:29:50;;;;;;;0.80;0.80;;;10.30;73.80;;;;;;5092369;28;20024;-63
2022/11/18 05:32:16;;;;;;;0.70;0.70;;;10.30;73.70;;;;;;5089463;28;20031;-63
2022/11/18 05:34:43;;;;;;;0.98;0.80;;;10.20;73.60;;;;;;5086531;28;20027;-63
2022/11/18 05:37:08;;;;;;;1.42;0.82;;;10.20;73.40;;;;;;5087303;28;20035;-63
2022/11/18 05:39:34;;;;;;;1.20;0.95;;;10.10;73.40;;;;;;5080886;28;20028;-63
2022/11/18 05:44:45;;;;;;;1.02;0.85;;;10.10;73.60;;;;;;5084252;28;20079;-63
2022/11/18 05:47:10;;;;;;;3.67;0.90;;;10.10;73.60;;;;;;5082407;28;20053;-63
2022/11/18 05:49:36;;;;;;;1.08;0.95;;;10.00;73.60;;;;;;5079678;28;20049;-63
2022/11/18 05:52:02;;;;;;;0.93;0.93;;;10.00;73.60;;;;;;5085619;28;20047;-64
2022/11/18 05:54:28;;;;;;;1.17;1.08;;;10.00;73.70;;;;;;5084684;28;20028;-63
2022/11/18 05:56:54;;;;;;;0.70;0.70;;;9.90;73.30;;;;;;5094780;28;20032;-64
2022/11/18 05:59:20;;;;;;;1.33;1.20;;;9.90;73.30;;;;;;5091372;28;20028;-64
2022/11/18 06:01:49;;;;;;;4.72;3.33;;;9.80;73.50;;;;;;5091913;28;20021;-63
2022/11/18 06:04:20;;;;;;;3.67;3.20;;;9.80;73.60;;;;;;5096755;28;20039;-63
2022/11/18 06:06:48;;;;;;;1.70;1.60;;;9.80;73.80;;;;;;5082648;28;20131;-65
2022/11/18 06:09:17;;;;;;;1.33;1.20;;;9.80;73.80;;;;;;5094961;28;20023;-63
2022/11/18 06:11:48;;;;;;;2.22;1.30;;;9.80;73.80;;;;;;5089005;28;20439;-63
2022/11/18 06:14:20;;;;;;;1.25;1.15;;;9.80;73.90;;;;;;5088721;28;20024;-63
2022/11/18 06:16:50;;;;;;;0.95;0.95;;;9.80;74.00;;;;;;5090537;28;20028;-63
2022/11/18 06:19:16;;;;;;;0.80;0.80;;;9.80;73.90;;;;;;4966342;28;20028;-63
2022/11/18 06:21:43;;;;;;;0.88;0.75;;;9.70;73.60;;;;;;5081023;28;20082;-63
2022/11/18 06:24:10;;;;;;;0.80;0.70;;;9.70;73.60;;;;;;5094944;28;20047;-63
2022/11/18 06:26:37;;;;;;;0.82;0.80;;;9.70;73.60;;;;;;5097080;28;20024;-63
2022/11/18 06:29:06;;;;;;;0.80;0.77;;;9.70;73.50;;;;;;5083506;28;20028;-63
2022/11/18 06:31:32;;;;;;;1.50;0.90;;;9.70;73.40;;;;;;5087369;28;20060;-64
2022/11/18 06:33:57;;;;;;;0.80;0.80;;;9.60;73.40;;;;;;5088357;28;20024;-63
2022/11/18 06:36:23;;;;;;;0.75;0.75;;;9.60;73.50;;;;;;5082082;28;20025;-63
2022/11/18 06:38:48;;;;;;;0.75;0.75;;;9.60;73.40;;;;;;5085380;28;20024;-64
2022/11/18 06:41:14;;;;;;;0.77;0.77;;;9.60;73.40;;;;;;5092838;28;20398;-63
2022/11/18 06:43:42;;;;;;;0.80;0.80;;;9.60;73.50;;;;;;5086739;28;20040;-63
2022/11/18 06:48:58;;;;;;;0.85;0.85;;;9.50;73.60;;;;;;5084707;28;20052;-64
2022/11/18 06:51:25;;;;;;;1.00;1.00;;;9.50;73.30;;;;;;5072615;28;20035;-63
2022/11/18 06:53:51;;;;;;;0.80;0.80;;;9.50;73.40;;;;;;5078400;28;20025;-64
2022/11/18 06:56:19;;;;;;;1.33;0.80;;;9.40;73.30;;;;;;5081625;28;20043;-63
2022/11/18 06:58:45;;;;;;;2.22;0.90;;;9.50;73.40;;;;;;5083661;28;20029;-64
2022/11/18 07:01:16;;;;;;;1.00;0.98;;;9.40;73.30;;;;;;5080461;28;20028;-63
2022/11/18 07:03:44;;;;;;;0.60;0.60;;;9.40;73.30;;;;;;5084118;28;20020;-65
2022/11/18 07:06:11;;;;;;;0.63;0.63;;;9.40;73.30;;;;;;5084237;28;20017;-63
2022/11/18 07:08:38;;;;;;;0.60;0.60;;;9.30;73.30;;;;;;5086406;28;20021;-67
2022/11/18 07:11:06;;;;;;;0.70;0.70;;;9.30;73.20;;;;;;5084184;28;20065;-68
2022/11/18 07:13:32;;;;;;;0.77;0.75;;;9.30;73.30;;;;;;5080037;28;20040;-67
2022/11/18 07:16:12;;;;;;;2.35;0.80;;;9.30;73.30;;;;;;5082846;28;20380;-68
2022/11/18 07:18:43;;;;;;;1.33;0.80;;;9.30;73.30;;;;;;5082747;28;20032;-68
2022/11/18 07:21:14;;;;;;;1.00;0.80;;;9.20;73.30;;;;;;5073101;28;20039;-68
2022/11/18 07:23:40;;;;;;;0.98;0.90;;;9.20;73.50;;;;;;5089500;28;20053;-68
2022/11/18 07:26:06;;;;;;;1.00;0.90;;;9.20;73.50;;;;;;5076957;28;20040;-68
2022/11/18 07:28:32;;;;;;;1.50;1.10;;;9.30;73.70;;;;;;5072190;28;20029;-67
2022/11/18 07:31:02;;;;;;;2.05;1.23;;;9.30;73.90;;;;;;5082542;28;20044;-69
2022/11/18 07:33:29;;;;;;;2.20;1.00;;;9.30;74.20;;;;;;5086199;28;20081;-66
2022/11/18 07:35:54;;;;;;;1.38;1.20;;;9.30;74.20;;;;;;5084759;28;20059;-68
2022/11/18 07:38:20;;;;;;;1.20;1.10;;;9.40;74.20;;;;;;5083346;28;20016;-67
2022/11/18 07:40:46;;;;;;;5.18;1.20;;;9.40;74.10;;;;;;5081178;28;20025;-67
2022/11/18 07:43:11;;;;;;;1.10;1.00;;;9.50;74.10;;;;;;5088034;28;20414;-68
2022/11/18 07:45:37;;;;;;;1.00;1.00;;;9.50;74.20;;;;;;5086534;28;20019;-67
2022/11/18 07:48:04;;;;;;;1.17;1.00;;;9.50;74.10;;;;;;5080701;28;20052;-67
2022/11/18 07:50:29;;;;;;;1.00;0.90;;;9.60;74.00;;;;;;5082158;28;20032;-68
2022/11/18 07:52:56;;;;;;;0.70;0.70;;;9.60;74.20;;;;;;5076186;28;20502;-68
2022/11/18 07:55:22;;;;;;;0.90;0.90;;;9.70;74.20;;;;;;5085950;28;20093;-67
2022/11/18 07:57:47;;;;;;;0.85;0.85;;;9.70;74.00;;;;;;5090637;28;20074;-67
2022/11/18 08:00:13;;;;;;;1.67;1.00;;;9.80;74.00;;;;;;5096572;28;20127;-68
2022/11/18 08:02:39;;;;;;;1.92;1.40;;;9.80;74.10;;;;;;5086160;28;20046;-67
2022/11/18 08:05:05;;;;;;;1.92;1.60;;;9.90;74.10;;;;;;5083119;28;20028;-67
2022/11/18 08:07:31;;;;;;;2.47;2.17;;;9.90;74.00;;;;;;5077507;28;20356;-67
2022/11/18 08:09:56;;;;;;;1.88;1.60;;;10.00;73.80;;;;;;5080248;28;20028;-66
2022/11/18 08:12:22;;;;;;;2.45;1.67;;;10.00;73.80;;;;;;5070345;28;20028;-67
2022/11/18 08:14:48;;;;;;;1.50;1.20;;;10.10;73.90;;;;;;5086633;28;20039;-68
2022/11/18 08:17:13;;;;;;;1.42;1.30;;;10.10;73.60;;;;;;5075338;28;20025;-66
2022/11/18 08:19:39;;;;;;;2.15;1.30;;;10.10;73.60;;;;;;5075695;28;20024;-67
2022/11/18 08:22:06;;;;;;;1.20;1.10;;;10.20;73.80;;;;;;5077882;28;20027;-67
2022/11/18 08:24:31;;;;;;;1.88;1.38;;;10.20;74.00;;;;;;5083447;28;20051;-66
2022/11/18 08:26:57;;;;;;;1.30;1.20;;;10.30;74.00;;;;;;5069640;28;20114;-66
2022/11/18 08:29:22;;;;;;;3.00;1.35;;;10.30;74.00;;;;;;5100710;28;20050;-68
2022/11/18 08:31:48;;;;;;;1.00;0.90;;;10.40;74.00;;;;;;5075952;28;20364;-69
2022/11/18 08:34:14;;;;;;;1.38;1.20;;;10.40;74.00;;;;;;5095878;28;20047;-66
2022/11/18 08:36:39;;;;;;;1.17;1.10;;;10.50;73.90;;;;;;5086459;28;20132;-68
2022/11/18 08:39:07;;;;;;;2.10;1.67;;;10.50;73.90;;;;;;5083014;28;20029;-68
2022/11/18 08:41:35;;;;;;;4.25;1.50;;;10.50;74.00;;;;;;5082510;28;20020;-69
2022/11/18 08:44:03;;;;;;;1.50;1.30;;;10.60;73.80;;;;;;5081047;28;20036;-68
2022/11/18 08:46:29;;;;;;;1.48;1.35;;;10.60;73.60;;;;;;5075489;28;20462;-68
2022/11/18 08:48:55;;;;;;;1.80;1.50;;;10.70;73.70;;;;;;5083069;28;20038;-69
2022/11/18 08:51:20;;;;;;;1.92;1.20;;;10.70;73.40;;;;;;5084171;28;20082;-69
2022/11/18 08:53:47;;;;;;;1.25;1.00;;;10.70;73.10;;;;;;5086466;28;20068;-68
2022/11/18 08:56:18;;;;;;;0.90;0.80;;;10.70;73.00;;;;;;5087330;28;20032;-68
2022/11/18 08:58:45;;;;;;;0.60;0.60;;;10.70;72.90;;;;;;5074156;28;20021;-67
2022/11/18 09:01:11;;;;;;;0.70;0.70;;;10.70;72.70;;;;;;5082198;28;20047;-69
2022/11/18 09:03:37;;;;;;;1.10;0.80;;;10.70;73.30;;;;;;5085407;28;20040;-68
2022/11/18 09:06:11;;;;;;;0.88;0.60;;;10.60;72.50;;;;;;5078757;28;20025;-68
2022/11/18 09:08:39;;;;;;;0.60;0.50;;;10.60;72.40;;;;;;5082195;28;20051;-68
2022/11/18 09:11:24;;;;;;;0.55;0.50;;;10.60;72.50;;;;;;5085959;28;20032;-69
2022/11/18 09:13:55;;;;;;;1.20;0.57;;;10.60;72.10;;;;;;5077571;28;20017;-69
2022/11/18 09:16:22;;;;;;;0.47;0.47;;;10.60;72.70;;;;;;5074896;28;20052;-68
2022/11/18 09:18:49;;;;;;;0.80;0.80;;;10.50;72.50;;;;;;5080447;28;20024;-68
2022/11/18 09:21:16;;;;;;;0.60;0.60;;;10.50;72.70;;;;;;5075213;28;20017;-69
2022/11/18 09:23:41;;;;;;;0.95;0.65;;;10.60;72.80;;;;;;5075904;28;20052;-67
2022/11/18 09:26:14;;;;;;;0.50;0.50;;;10.60;72.90;;;;;;5088333;28;20024;-68
2022/11/18 09:28:40;;;;;;;0.60;0.60;;;10.60;73.00;;;;;;5088460;28;20084;-68
2022/11/18 09:31:08;;;;;;;0.60;0.60;;;10.70;73.10;;;;;;5077028;28;20036;-68
2022/11/18 09:33:35;;;;;;;0.52;0.40;;;10.70;72.90;;;;;;5080113;28;20056;-68
2022/11/18 09:36:01;;;;;;;0.50;0.50;;;10.80;73.70;;;;;;5089003;28;20028;-69
2022/11/18 09:38:31;;;;;;;3.80;0.60;;;10.80;72.90;;;;;;5094604;28;20039;-68
2022/11/18 09:40:59;;;;;;;0.60;0.60;;;10.90;72.70;;;;;;5078912;28;20547;-68
2022/11/18 09:43:56;;;;;;;0.70;0.70;;;10.90;72.80;;;;;;5089106;28;20031;-68
2022/11/18 09:46:33;;;;;;;0.68;0.68;;;10.90;72.70;;;;;;5083928;28;20090;-68
2022/11/18 09:49:11;;;;;;;0.68;0.68;;;10.90;73.00;;;;;;5097236;28;20028;-68
2022/11/18 09:51:42;;;;;;;0.70;0.50;;;11.00;73.00;;;;;;5094974;28;20473;-70
2022/11/18 09:54:38;;;;;;;0.60;0.60;;;11.00;72.60;;;;;;5076519;28;20040;-70
2022/11/18 09:57:18;;;;;;;0.52;0.52;;;11.00;72.20;;;;;;5076960;28;20052;-68
2022/11/18 09:59:44;;;;;;;0.73;0.73;;;10.90;72.20;;;;;;5073205;28;20040;-68
2022/11/18 10:02:12;;;;;;;0.70;0.70;;;10.90;72.50;;;;;;5096427;28;20097;-69
2022/11/18 10:04:38;;;;;;;0.60;0.60;;;10.90;72.80;;;;;;5074101;28;20027;-68
2022/11/18 10:07:16;;;;;;;0.60;0.60;;;10.90;72.80;;;;;;5088678;28;20056;-70
2022/11/18 10:09:43;;;;;;;1.00;0.60;;;10.90;72.50;;;;;;5080173;28;20086;-69
2022/11/18 10:12:21;;;;;;;1.05;0.98;;;10.90;72.30;;;;;;5080766;28;20493;-67
2022/11/18 10:15:31;;;;;;;1.17;0.90;;;10.80;72.00;;;;;;5078278;28;20027;-69
2022/11/18 10:18:06;;;;;;;3.40;1.10;;;10.80;72.20;;;;;;5073230;28;20027;-66
2022/11/18 10:20:58;;;;;;;1.02;0.93;;;10.70;72.10;;;;;;5088056;28;20021;-68
2022/11/18 10:23:34;;;;;;;3.13;0.70;;;10.70;72.30;;;;;;5084662;28;20025;-69
2022/11/18 10:26:00;;;;;;;0.80;0.80;;;10.70;72.30;;;;;;5082227;28;20115;-68
2022/11/18 10:28:28;;;;;;;0.85;0.70;;;10.70;73.30;;;;;;5078602;28;20029;-67
2022/11/18 10:31:04;;;;;;;1.17;0.93;;;10.70;73.00;;;;;;5077699;28;20036;-68
2022/11/18 10:33:29;;;;;;;55.47;26.27;;;10.70;73.00;;;;;;5084080;28;20080;-68
2022/11/18 10:36:18;;;;;;;7.43;3.58;;;10.70;73.10;;;;;;5089552;28;20060;-70
2022/11/18 10:38:44;;;;;;;1.80;1.42;;;10.80;73.00;;;;;;5097880;28;20034;-68
2022/11/18 10:41:16;;;;;;;0.90;0.82;;;10.80;72.90;;;;;;5089267;28;20047;-69
2022/11/18 10:43:48;;;;;;;0.63;0.60;;;10.90;72.90;;;;;;5088959;28;20039;-69
2022/11/18 10:46:25;;;;;;;0.68;0.68;;;10.90;73.00;;;;;;5088077;28;20021;-69
2022/11/18 10:49:21;;;;;;;0.70;0.70;;;10.90;72.60;;;;;;5085847;28;20340;-69
2022/11/18 10:52:09;;;;;;;0.52;0.52;;;11.00;72.60;;;;;;5075048;28;20159;-69
2022/11/18 10:54:35;;;;;;;0.70;0.70;;;11.00;72.30;;;;;;5092630;28;20036;-68
2022/11/18 10:57:19;;;;;;;0.70;0.70;;;11.00;72.40;;;;;;5079852;28;20024;-68
2022/11/18 10:59:53;;;;;;;0.80;0.80;;;11.00;72.30;;;;;;5087616;28;20027;-69
2022/11/18 11:02:34;;;;;;;1.05;0.80;;;11.00;72.50;;;;;;5091110;28;20028;-69
2022/11/18 11:05:24;;;;;;;0.82;0.70;;;11.10;73.00;;;;;;5079492;28;20102;-69
2022/11/18 11:08:20;;;;;;;1.73;0.90;;;11.10;73.20;;;;;;5085703;28;20044;-69
2022/11/18 11:10:57;;;;;;;1.08;0.98;;;11.10;73.30;;;;;;5078623;28;20047;-69
2022/11/18 11:13:26;;;;;;;0.80;0.80;;;11.20;73.30;;;;;;5080541;28;20025;-69
2022/11/18 11:15:55;;;;;;;1.10;1.00;;;11.30;73.20;;;;;;5075460;28;20025;-70
2022/11/18 11:18:42;;;;;;;1.20;1.10;;;11.40;73.20;;;;;;5091727;28;20028;-67
2022/11/18 11:21:16;;;;;;;0.70;0.70;;;11.50;72.70;;;;;;5081171;28;20840;-68
2022/11/18 11:23:43;;;;;;;1.05;0.77;;;11.50;72.30;;;;;;5079257;28;20088;-69
2022/11/18 11:26:43;;;;;;;0.70;0.70;;;11.50;72.50;;;;;;5093258;28;20032;-69
2022/11/18 11:29:51;;;;;;;1.00;0.68;;;11.60;72.70;;;;;;5082134;28;20021;-70
2022/11/18 11:32:49;;;;;;;0.60;0.60;;;11.60;72.10;;;;;;5093047;28;20055;-70
2022/11/18 11:35:20;;;;;;;0.60;0.60;;;11.60;71.30;;;;;;5077639;28;20028;-68
2022/11/18 11:38:03;;;;;;;0.75;0.75;;;11.60;71.90;;;;;;5087821;28;20032;-70
2022/11/18 11:40:49;;;;;;;1.00;0.90;;;11.60;72.30;;;;;;5087013;28;20025;-68
2022/11/18 11:43:39;;;;;;;0.70;0.70;;;11.60;72.30;;;;;;5093943;28;20056;-68
2022/11/18 11:46:25;;;;;;;0.60;0.60;;;11.70;71.90;;;;;;5082100;28;20035;-69
2022/11/18 11:49:03;;;;;;;0.73;0.73;;;11.70;71.60;;;;;;5094856;28;20036;-69
2022/11/18 11:51:52;;;;;;;1.13;0.82;;;11.70;71.70;;;;;;5088006;28;20044;-69
2022/11/18 11:54:43;;;;;;;1.45;0.90;;;11.70;72.00;;;;;;5091676;28;20028;-69
2022/11/18 11:57:30;;;;;;;0.70;0.70;;;11.70;72.50;;;;;;5086050;28;20428;-69
2022/11/18 12:00:07;;;;;;;0.82;0.80;;;11.70;72.20;;;;;;5064257;28;20131;-70
2022/11/18 12:03:11;;;;;;;0.60;0.60;;;11.80;72.20;;;;;;5076686;28;20086;-69
2022/11/18 12:05:42;;;;;;;0.70;0.70;;;11.80;71.70;;;;;;5076799;28;20064;-69
2022/11/18 12:08:19;;;;;;;1.00;0.60;;;11.80;71.30;;;;;;5079441;28;20021;-70
2022/11/18 12:11:04;;;;;;;0.70;0.70;;;11.70;71.30;;;;;;5081703;28;20036;-69
2022/11/18 12:14:02;;;;;;;1.00;0.90;;;11.60;71.30;;;;;;5084729;28;20036;-68
2022/11/18 12:16:55;;;;;;;1.58;0.80;;;11.60;71.70;;;;;;5077625;28;20025;-69
2022/11/18 12:19:22;;;;;;;0.60;0.60;;;11.50;72.00;;;;;;5084691;28;20172;-68
2022/11/18 12:21:52;;;;;;;0.63;0.60;;;11.50;72.20;;;;;;5089712;28;20024;-69
2022/11/18 12:24:34;;;;;;;0.80;0.80;;;11.50;72.30;;;;;;5083348;28;20025;-69
2022/11/18 12:27:13;;;;;;;1.10;0.70;;;11.50;72.40;;;;;;5089107;28;20035;-70
2022/11/18 12:29:51;;;;;;;1.17;1.02;;;11.60;72.60;;;;;;5077895;28;20027;-69
2022/11/18 12:32:31;;;;;;;1.00;0.80;;;11.50;72.40;;;;;;5087352;28;20043;-69
2022/11/18 12:35:25;;;;;;;1.65;0.80;;;11.60;72.50;;;;;;5081169;28;20591;-70
2022/11/18 12:37:50;;;;;;;0.77;0.77;;;11.60;72.90;;;;;;5082872;28;20024;-69
2022/11/18 12:40:40;;;;;;;1.67;1.00;;;11.60;72.70;;;;;;5092534;28;20069;-69
2022/11/18 12:43:47;;;;;;;1.80;1.10;;;11.60;72.50;;;;;;5087122;28;20402;-69
2022/11/18 12:46:34;;;;;;;0.65;0.65;;;11.70;72.60;;;;;;5048847;28;20074;-68
2022/11/18 12:49:21;;;;;;;1.35;0.80;;;11.70;72.90;;;;;;5047897;28;20036;-70
2022/11/18 12:51:51;;;;;;;2.25;0.93;;;11.70;72.80;;;;;;5030256;28;20092;-69
2022/11/18 12:54:28;;;;;;;1.23;1.00;;;11.70;72.60;;;;;;5037234;28;20036;-70
2022/11/18 12:56:57;;;;;;;1.90;1.02;;;11.70;72.20;;;;;;5050728;28;20079;-69
2022/11/18 12:59:35;;;;;;;0.85;0.85;;;11.70;72.20;;;;;;5032969;28;20059;-70
2022/11/18 13:02:36;;;;;;;1.10;0.90;;;11.70;72.30;;;;;;5034061;28;20045;-71
2022/11/18 13:05:20;;;;;;;1.05;0.80;;;11.70;72.40;;;;;;5039160;28;20064;-70
2022/11/18 13:08:11;;;;;;;2.63;2.17;;;11.70;72.30;;;;;;5026228;28;20573;-70
2022/11/18 13:10:47;;;;;;;2.88;1.88;;;11.70;72.50;;;;;;5047479;28;20041;-69
2022/11/18 13:13:22;;;;;;;1.08;1.00;;;11.70;72.20;;;;;;5041937;28;20049;-70
2022/11/18 13:18:33;;;;;;;1.17;0.93;;;11.60;72.00;;;;;;5042209;28;20459;-70
2022/11/18 13:23:50;;;;;;;1.20;1.10;;;11.60;72.10;;;;;;5048769;28;20104;-71
2022/11/18 13:23:51;;;;;;;2.08;1.08;;;11.50;72.20;;;;;;5067751;28;20047;-70
2022/11/18 13:26:26;;;;;;;2.50;1.60;;;11.50;72.00;;;;;;5086594;28;20036;-70
2022/11/18 13:29:21;;;;;;;1.45;1.30;;;11.50;72.10;;;;;;5074341;28;20029;-71
2022/11/18 13:32:11;;;;;;;1.95;1.50;;;11.50;72.20;;;;;;5077766;28;20062;-70